sensor_id;sensor_type;location;lat;lon;timestamp;P1;durP1;ratioP1;P2;durP2;ratioP2
71395;SDS011;59888;55.814;37.132;2023-02-21T00:02:22;49.63;;;17.67;;
71395;SDS011;59888;55.814;37.132;2023-02-21T00:08:11;46.25;;;16.70;;
71395;SDS011;59888;55.814;37.132;2023-02-21T00:10:55;44.58;;;15.63;;
71395;SDS011;59888;55.814;37.132;2023-02-21T00:13:45;45.50;;;15.93;;
71395;SDS011;59888;55.814;37.132;2023-02-21T00:16:29;43.28;;;15.50;;
71395;SDS011;59888;55.814;37.132;2023-02-21T00:19:14;44.60;;;16.52;;
71395;SDS011;59888;55.814;37.132;2023-02-21T00:21:58;49.38;;;16.50;;
71395;SDS011;59888;55.814;37.132;2023-02-21T00:24:42;44.40;;;17.63;;
71395;SDS011;59888;55.814;37.132;2023-02-21T00:27:28;44.03;;;15.98;;
71395;SDS011;59888;55.814;37.132;2023-02-21T00:30:13;47.33;;;17.08;;
71395;SDS011;59888;55.814;37.132;2023-02-21T00:32:58;46.65;;;17.27;;
71395;SDS011;59888;55.814;37.132;2023-02-21T00:35:43;48.53;;;17.73;;
71395;SDS011;59888;55.814;37.132;2023-02-21T00:38:28;47.33;;;16.73;;
71395;SDS011;59888;55.814;37.132;2023-02-21T00:41:13;51.55;;;17.02;;
71395;SDS011;59888;55.814;37.132;2023-02-21T00:44:02;41.70;;;15.82;;
71395;SDS011;59888;55.814;37.132;2023-02-21T00:46:47;46.25;;;17.23;;
71395;SDS011;59888;55.814;37.132;2023-02-21T00:49:32;41.95;;;16.33;;
71395;SDS011;59888;55.814;37.132;2023-02-21T00:52:17;44.40;;;17.50;;
71395;SDS011;59888;55.814;37.132;2023-02-21T00:55:02;43.50;;;16.23;;
71395;SDS011;59888;55.814;37.132;2023-02-21T00:57:47;44.90;;;16.55;;
71395;SDS011;59888;55.814;37.132;2023-02-21T01:00:31;39.97;;;15.45;;
71395;SDS011;59888;55.814;37.132;2023-02-21T01:03:16;39.50;;;14.75;;
71395;SDS011;59888;55.814;37.132;2023-02-21T01:08:45;45.60;;;16.58;;
71395;SDS011;59888;55.814;37.132;2023-02-21T01:11:30;46.00;;;15.98;;
71395;SDS011;59888;55.814;37.132;2023-02-21T01:14:15;40.67;;;16.23;;
71395;SDS011;59888;55.814;37.132;2023-02-21T01:17:00;44.55;;;16.20;;
71395;SDS011;59888;55.814;37.132;2023-02-21T01:19:45;43.70;;;17.13;;
71395;SDS011;59888;55.814;37.132;2023-02-21T01:22:32;40.38;;;15.60;;
71395;SDS011;59888;55.814;37.132;2023-02-21T01:28:00;45.03;;;17.25;;
71395;SDS011;59888;55.814;37.132;2023-02-21T01:30:45;47.72;;;17.30;;
71395;SDS011;59888;55.814;37.132;2023-02-21T01:33:34;45.90;;;17.08;;
71395;SDS011;59888;55.814;37.132;2023-02-21T01:36:22;47.83;;;18.38;;
71395;SDS011;59888;55.814;37.132;2023-02-21T01:39:07;46.92;;;16.13;;
71395;SDS011;59888;55.814;37.132;2023-02-21T01:41:51;43.85;;;17.00;;
71395;SDS011;59888;55.814;37.132;2023-02-21T01:44:40;47.80;;;17.73;;
71395;SDS011;59888;55.814;37.132;2023-02-21T01:47:30;43.72;;;17.10;;
71395;SDS011;59888;55.814;37.132;2023-02-21T01:50:20;46.95;;;17.60;;
71395;SDS011;59888;55.814;37.132;2023-02-21T01:53:21;43.03;;;16.77;;
71395;SDS011;59888;55.814;37.132;2023-02-21T01:56:09;44.90;;;17.45;;
71395;SDS011;59888;55.814;37.132;2023-02-21T01:58:55;48.42;;;18.00;;
71395;SDS011;59888;55.814;37.132;2023-02-21T02:04:51;51.15;;;17.90;;
71395;SDS011;59888;55.814;37.132;2023-02-21T02:07:36;48.63;;;17.92;;
71395;SDS011;59888;55.814;37.132;2023-02-21T02:10:21;48.22;;;18.08;;
71395;SDS011;59888;55.814;37.132;2023-02-21T02:21:05;48.28;;;17.63;;
71395;SDS011;59888;55.814;37.132;2023-02-21T02:35:13;48.63;;;17.67;;
71395;SDS011;59888;55.814;37.132;2023-02-21T02:37:54;49.92;;;17.60;;
71395;SDS011;59888;55.814;37.132;2023-02-21T02:43:10;52.67;;;18.75;;
71395;SDS011;59888;55.814;37.132;2023-02-21T02:48:36;56.65;;;19.80;;
71395;SDS011;59888;55.814;37.132;2023-02-21T02:51:06;52.80;;;19.55;;
71395;SDS011;59888;55.814;37.132;2023-02-21T02:53:40;47.85;;;17.52;;
71395;SDS011;59888;55.814;37.132;2023-02-21T02:56:11;49.58;;;17.73;;
71395;SDS011;59888;55.814;37.132;2023-02-21T03:01:23;49.10;;;17.35;;
71395;SDS011;59888;55.814;37.132;2023-02-21T03:03:54;47.55;;;17.23;;
71395;SDS011;59888;55.814;37.132;2023-02-21T03:11:34;45.20;;;18.00;;
71395;SDS011;59888;55.814;37.132;2023-02-21T03:14:12;49.65;;;17.38;;
71395;SDS011;59888;55.814;37.132;2023-02-21T03:16:49;48.42;;;16.92;;
71395;SDS011;59888;55.814;37.132;2023-02-21T03:19:20;48.17;;;18.73;;
71395;SDS011;59888;55.814;37.132;2023-02-21T03:21:57;54.65;;;18.23;;
71395;SDS011;59888;55.814;37.132;2023-02-21T03:24:31;52.55;;;18.55;;
71395;SDS011;59888;55.814;37.132;2023-02-21T03:29:47;47.42;;;18.20;;
71395;SDS011;59888;55.814;37.132;2023-02-21T03:32:28;48.38;;;17.90;;
71395;SDS011;59888;55.814;37.132;2023-02-21T03:35:00;56.53;;;19.42;;
71395;SDS011;59888;55.814;37.132;2023-02-21T03:37:30;47.10;;;17.23;;
71395;SDS011;59888;55.814;37.132;2023-02-21T03:39:56;48.35;;;18.20;;
71395;SDS011;59888;55.814;37.132;2023-02-21T03:42:23;41.90;;;16.83;;
71395;SDS011;59888;55.814;37.132;2023-02-21T03:44:49;46.90;;;17.45;;
71395;SDS011;59888;55.814;37.132;2023-02-21T03:47:15;42.78;;;16.77;;
71395;SDS011;59888;55.814;37.132;2023-02-21T03:49:41;44.67;;;16.67;;
71395;SDS011;59888;55.814;37.132;2023-02-21T03:52:08;44.70;;;17.08;;
71395;SDS011;59888;55.814;37.132;2023-02-21T03:54:48;49.08;;;18.98;;
71395;SDS011;59888;55.814;37.132;2023-02-21T03:57:18;41.28;;;16.83;;
71395;SDS011;59888;55.814;37.132;2023-02-21T03:59:45;42.58;;;16.90;;
71395;SDS011;59888;55.814;37.132;2023-02-21T04:02:12;44.25;;;17.67;;
71395;SDS011;59888;55.814;37.132;2023-02-21T04:04:39;51.88;;;18.00;;
71395;SDS011;59888;55.814;37.132;2023-02-21T04:07:13;46.38;;;18.00;;
71395;SDS011;59888;55.814;37.132;2023-02-21T04:09:40;47.13;;;18.00;;
71395;SDS011;59888;55.814;37.132;2023-02-21T04:12:09;49.90;;;17.60;;
71395;SDS011;59888;55.814;37.132;2023-02-21T04:14:38;48.28;;;16.55;;
71395;SDS011;59888;55.814;37.132;2023-02-21T04:17:04;47.00;;;17.23;;
71395;SDS011;59888;55.814;37.132;2023-02-21T04:19:30;50.20;;;17.70;;
71395;SDS011;59888;55.814;37.132;2023-02-21T04:21:56;50.78;;;17.67;;
71395;SDS011;59888;55.814;37.132;2023-02-21T04:24:22;43.72;;;17.95;;
71395;SDS011;59888;55.814;37.132;2023-02-21T04:26:50;48.28;;;18.05;;
71395;SDS011;59888;55.814;37.132;2023-02-21T04:29:16;45.45;;;17.40;;
71395;SDS011;59888;55.814;37.132;2023-02-21T04:31:43;45.08;;;16.27;;
71395;SDS011;59888;55.814;37.132;2023-02-21T04:34:13;44.08;;;16.35;;
71395;SDS011;59888;55.814;37.132;2023-02-21T04:36:42;46.17;;;17.67;;
71395;SDS011;59888;55.814;37.132;2023-02-21T04:39:08;38.70;;;15.55;;
71395;SDS011;59888;55.814;37.132;2023-02-21T04:41:34;43.00;;;16.48;;
71395;SDS011;59888;55.814;37.132;2023-02-21T04:44:00;43.25;;;15.60;;
71395;SDS011;59888;55.814;37.132;2023-02-21T04:46:30;48.00;;;17.05;;
71395;SDS011;59888;55.814;37.132;2023-02-21T04:48:56;51.55;;;18.02;;
71395;SDS011;59888;55.814;37.132;2023-02-21T04:51:23;45.72;;;17.60;;
71395;SDS011;59888;55.814;37.132;2023-02-21T04:53:51;41.70;;;15.65;;
71395;SDS011;59888;55.814;37.132;2023-02-21T04:56:18;45.50;;;17.02;;
71395;SDS011;59888;55.814;37.132;2023-02-21T04:58:46;40.92;;;15.95;;
71395;SDS011;59888;55.814;37.132;2023-02-21T05:01:13;49.03;;;16.52;;
71395;SDS011;59888;55.814;37.132;2023-02-21T05:03:40;46.45;;;16.13;;
71395;SDS011;59888;55.814;37.132;2023-02-21T05:06:06;46.92;;;16.98;;
71395;SDS011;59888;55.814;37.132;2023-02-21T05:08:31;48.45;;;17.63;;
71395;SDS011;59888;55.814;37.132;2023-02-21T05:10:58;46.42;;;17.10;;
71395;SDS011;59888;55.814;37.132;2023-02-21T05:13:24;45.90;;;16.45;;
71395;SDS011;59888;55.814;37.132;2023-02-21T05:15:49;45.58;;;16.88;;
71395;SDS011;59888;55.814;37.132;2023-02-21T05:18:15;41.53;;;16.63;;
71395;SDS011;59888;55.814;37.132;2023-02-21T05:20:48;41.70;;;16.02;;
71395;SDS011;59888;55.814;37.132;2023-02-21T05:23:15;45.78;;;16.83;;
71395;SDS011;59888;55.814;37.132;2023-02-21T05:25:43;44.35;;;16.00;;
71395;SDS011;59888;55.814;37.132;2023-02-21T05:28:09;47.03;;;16.42;;
71395;SDS011;59888;55.814;37.132;2023-02-21T05:30:35;40.78;;;16.40;;
71395;SDS011;59888;55.814;37.132;2023-02-21T05:33:01;42.53;;;15.75;;
71395;SDS011;59888;55.814;37.132;2023-02-21T05:35:27;46.90;;;17.75;;
71395;SDS011;59888;55.814;37.132;2023-02-21T05:37:53;43.25;;;16.85;;
71395;SDS011;59888;55.814;37.132;2023-02-21T05:40:18;39.50;;;16.08;;
71395;SDS011;59888;55.814;37.132;2023-02-21T05:42:46;44.28;;;16.50;;
71395;SDS011;59888;55.814;37.132;2023-02-21T05:45:12;41.95;;;16.13;;
71395;SDS011;59888;55.814;37.132;2023-02-21T05:47:38;40.90;;;16.15;;
71395;SDS011;59888;55.814;37.132;2023-02-21T05:50:04;41.00;;;16.13;;
71395;SDS011;59888;55.814;37.132;2023-02-21T05:52:30;43.25;;;16.35;;
71395;SDS011;59888;55.814;37.132;2023-02-21T05:54:56;41.63;;;15.20;;
71395;SDS011;59888;55.814;37.132;2023-02-21T05:57:22;48.83;;;16.85;;
71395;SDS011;59888;55.814;37.132;2023-02-21T05:59:48;42.22;;;16.20;;
71395;SDS011;59888;55.814;37.132;2023-02-21T06:02:14;42.30;;;15.95;;
71395;SDS011;59888;55.814;37.132;2023-02-21T06:04:40;38.33;;;15.40;;
71395;SDS011;59888;55.814;37.132;2023-02-21T06:07:06;45.42;;;17.63;;
71395;SDS011;59888;55.814;37.132;2023-02-21T06:09:32;38.83;;;15.90;;
71395;SDS011;59888;55.814;37.132;2023-02-21T06:11:58;43.70;;;16.33;;
71395;SDS011;59888;55.814;37.132;2023-02-21T06:14:24;42.55;;;16.58;;
71395;SDS011;59888;55.814;37.132;2023-02-21T06:16:51;47.33;;;17.98;;
71395;SDS011;59888;55.814;37.132;2023-02-21T06:19:17;42.20;;;15.90;;
71395;SDS011;59888;55.814;37.132;2023-02-21T06:21:43;39.85;;;16.00;;
71395;SDS011;59888;55.814;37.132;2023-02-21T06:24:10;40.33;;;16.25;;
71395;SDS011;59888;55.814;37.132;2023-02-21T06:26:37;39.00;;;16.25;;
71395;SDS011;59888;55.814;37.132;2023-02-21T06:29:05;39.78;;;16.63;;
71395;SDS011;59888;55.814;37.132;2023-02-21T06:31:31;40.35;;;16.67;;
71395;SDS011;59888;55.814;37.132;2023-02-21T06:33:57;45.80;;;16.35;;
71395;SDS011;59888;55.814;37.132;2023-02-21T06:36:24;45.63;;;17.80;;
71395;SDS011;59888;55.814;37.132;2023-02-21T06:38:53;43.40;;;17.58;;
71395;SDS011;59888;55.814;37.132;2023-02-21T06:41:21;40.85;;;16.15;;
71395;SDS011;59888;55.814;37.132;2023-02-21T06:43:50;46.92;;;16.83;;
71395;SDS011;59888;55.814;37.132;2023-02-21T06:46:18;44.45;;;16.92;;
71395;SDS011;59888;55.814;37.132;2023-02-21T06:48:45;43.75;;;17.33;;
71395;SDS011;59888;55.814;37.132;2023-02-21T06:51:11;44.30;;;16.83;;
71395;SDS011;59888;55.814;37.132;2023-02-21T06:53:39;44.33;;;16.45;;
71395;SDS011;59888;55.814;37.132;2023-02-21T06:56:06;43.72;;;16.35;;
71395;SDS011;59888;55.814;37.132;2023-02-21T06:58:32;43.45;;;16.02;;
71395;SDS011;59888;55.814;37.132;2023-02-21T07:00:58;43.88;;;16.05;;
71395;SDS011;59888;55.814;37.132;2023-02-21T07:03:24;41.92;;;16.20;;
71395;SDS011;59888;55.814;37.132;2023-02-21T07:05:50;39.22;;;16.77;;
71395;SDS011;59888;55.814;37.132;2023-02-21T07:08:16;36.35;;;15.30;;
71395;SDS011;59888;55.814;37.132;2023-02-21T07:10:42;44.00;;;15.55;;
71395;SDS011;59888;55.814;37.132;2023-02-21T07:13:08;41.55;;;14.82;;
71395;SDS011;59888;55.814;37.132;2023-02-21T07:15:33;41.53;;;15.70;;
71395;SDS011;59888;55.814;37.132;2023-02-21T07:17:59;42.80;;;15.10;;
71395;SDS011;59888;55.814;37.132;2023-02-21T07:20:25;34.65;;;14.57;;
71395;SDS011;59888;55.814;37.132;2023-02-21T07:22:52;39.58;;;15.18;;
71395;SDS011;59888;55.814;37.132;2023-02-21T07:25:19;43.42;;;15.05;;
71395;SDS011;59888;55.814;37.132;2023-02-21T07:27:47;38.67;;;13.73;;
71395;SDS011;59888;55.814;37.132;2023-02-21T07:30:14;38.85;;;14.57;;
71395;SDS011;59888;55.814;37.132;2023-02-21T07:32:41;34.13;;;13.70;;
71395;SDS011;59888;55.814;37.132;2023-02-21T07:35:07;37.17;;;14.05;;
71395;SDS011;59888;55.814;37.132;2023-02-21T07:37:33;34.35;;;14.20;;
71395;SDS011;59888;55.814;37.132;2023-02-21T07:39:59;35.42;;;13.38;;
71395;SDS011;59888;55.814;37.132;2023-02-21T07:42:25;35.33;;;13.55;;
71395;SDS011;59888;55.814;37.132;2023-02-21T07:44:55;31.85;;;13.52;;
71395;SDS011;59888;55.814;37.132;2023-02-21T07:47:22;32.88;;;13.05;;
71395;SDS011;59888;55.814;37.132;2023-02-21T07:49:49;28.73;;;11.88;;
71395;SDS011;59888;55.814;37.132;2023-02-21T07:52:15;31.02;;;11.77;;
71395;SDS011;59888;55.814;37.132;2023-02-21T07:54:42;28.02;;;11.07;;
71395;SDS011;59888;55.814;37.132;2023-02-21T07:57:08;29.42;;;11.18;;
71395;SDS011;59888;55.814;37.132;2023-02-21T07:59:34;32.28;;;11.70;;
71395;SDS011;59888;55.814;37.132;2023-02-21T08:02:00;33.38;;;11.02;;
71395;SDS011;59888;55.814;37.132;2023-02-21T08:04:31;29.52;;;10.07;;
71395;SDS011;59888;55.814;37.132;2023-02-21T08:07:01;23.92;;;10.57;;
71395;SDS011;59888;55.814;37.132;2023-02-21T08:09:28;25.65;;;11.45;;
71395;SDS011;59888;55.814;37.132;2023-02-21T08:11:54;32.28;;;10.63;;
71395;SDS011;59888;55.814;37.132;2023-02-21T08:14:20;26.58;;;10.25;;
71395;SDS011;59888;55.814;37.132;2023-02-21T08:16:46;26.92;;;11.18;;
71395;SDS011;59888;55.814;37.132;2023-02-21T08:19:12;28.45;;;9.75;;
71395;SDS011;59888;55.814;37.132;2023-02-21T08:21:37;23.45;;;10.43;;
71395;SDS011;59888;55.814;37.132;2023-02-21T08:24:03;22.60;;;9.98;;
71395;SDS011;59888;55.814;37.132;2023-02-21T08:26:30;25.13;;;10.25;;
71395;SDS011;59888;55.814;37.132;2023-02-21T08:28:56;23.75;;;9.95;;
71395;SDS011;59888;55.814;37.132;2023-02-21T08:31:21;23.08;;;9.68;;
71395;SDS011;59888;55.814;37.132;2023-02-21T08:33:47;24.80;;;9.93;;
71395;SDS011;59888;55.814;37.132;2023-02-21T08:36:13;25.88;;;10.68;;
71395;SDS011;59888;55.814;37.132;2023-02-21T08:38:39;21.15;;;9.90;;
71395;SDS011;59888;55.814;37.132;2023-02-21T08:41:05;22.52;;;9.65;;
71395;SDS011;59888;55.814;37.132;2023-02-21T08:43:31;23.95;;;10.57;;
71395;SDS011;59888;55.814;37.132;2023-02-21T08:45:57;21.33;;;8.52;;
71395;SDS011;59888;55.814;37.132;2023-02-21T08:48:23;23.02;;;9.25;;
71395;SDS011;59888;55.814;37.132;2023-02-21T08:50:49;23.85;;;10.07;;
71395;SDS011;59888;55.814;37.132;2023-02-21T08:53:18;21.38;;;9.65;;
71395;SDS011;59888;55.814;37.132;2023-02-21T08:55:43;22.25;;;9.20;;
71395;SDS011;59888;55.814;37.132;2023-02-21T08:58:10;24.33;;;9.20;;
71395;SDS011;59888;55.814;37.132;2023-02-21T09:00:37;23.65;;;8.98;;
71395;SDS011;59888;55.814;37.132;2023-02-21T09:03:03;21.63;;;9.30;;
71395;SDS011;59888;55.814;37.132;2023-02-21T09:05:29;21.88;;;9.18;;
71395;SDS011;59888;55.814;37.132;2023-02-21T09:07:57;23.48;;;9.40;;
71395;SDS011;59888;55.814;37.132;2023-02-21T09:10:29;22.98;;;8.77;;
71395;SDS011;59888;55.814;37.132;2023-02-21T09:12:58;21.13;;;9.30;;
71395;SDS011;59888;55.814;37.132;2023-02-21T09:15:24;24.02;;;9.93;;
71395;SDS011;59888;55.814;37.132;2023-02-21T09:17:51;19.15;;;8.85;;
71395;SDS011;59888;55.814;37.132;2023-02-21T09:20:22;25.40;;;9.98;;
71395;SDS011;59888;55.814;37.132;2023-02-21T09:22:50;24.08;;;10.10;;
71395;SDS011;59888;55.814;37.132;2023-02-21T09:25:17;22.85;;;9.57;;
71395;SDS011;59888;55.814;37.132;2023-02-21T09:27:47;19.85;;;8.57;;
71395;SDS011;59888;55.814;37.132;2023-02-21T09:30:20;22.10;;;9.45;;
71395;SDS011;59888;55.814;37.132;2023-02-21T09:32:49;21.40;;;9.40;;
71395;SDS011;59888;55.814;37.132;2023-02-21T09:35:15;21.83;;;8.95;;
71395;SDS011;59888;55.814;37.132;2023-02-21T09:37:44;26.10;;;9.48;;
71395;SDS011;59888;55.814;37.132;2023-02-21T09:40:14;19.48;;;8.88;;
71395;SDS011;59888;55.814;37.132;2023-02-21T09:42:59;25.98;;;10.60;;
71395;SDS011;59888;55.814;37.132;2023-02-21T09:45:29;20.23;;;8.98;;
71395;SDS011;59888;55.814;37.132;2023-02-21T09:47:57;24.83;;;10.43;;
71395;SDS011;59888;55.814;37.132;2023-02-21T09:50:26;25.10;;;10.20;;
71395;SDS011;59888;55.814;37.132;2023-02-21T09:52:56;25.05;;;10.95;;
71395;SDS011;59888;55.814;37.132;2023-02-21T09:57:51;21.42;;;10.02;;
71395;SDS011;59888;55.814;37.132;2023-02-21T10:00:18;23.02;;;9.93;;
71395;SDS011;59888;55.814;37.132;2023-02-21T10:10:55;21.80;;;8.60;;
71395;SDS011;59888;55.814;37.132;2023-02-21T10:13:30;19.35;;;8.73;;
71395;SDS011;59888;55.814;37.132;2023-02-21T10:16:07;21.02;;;8.40;;
71395;SDS011;59888;55.814;37.132;2023-02-21T10:21:14;19.95;;;8.52;;
71395;SDS011;59888;55.814;37.132;2023-02-21T10:23:49;20.20;;;9.32;;
71395;SDS011;59888;55.814;37.132;2023-02-21T10:26:22;20.42;;;8.95;;
71395;SDS011;59888;55.814;37.132;2023-02-21T10:28:51;21.05;;;8.80;;
71395;SDS011;59888;55.814;37.132;2023-02-21T10:34:04;19.75;;;7.25;;
71395;SDS011;59888;55.814;37.132;2023-02-21T10:36:32;19.98;;;9.32;;
71395;SDS011;59888;55.814;37.132;2023-02-21T10:39:03;23.90;;;8.35;;
71395;SDS011;59888;55.814;37.132;2023-02-21T10:41:35;18.20;;;8.73;;
71395;SDS011;59888;55.814;37.132;2023-02-21T10:44:08;19.85;;;8.57;;
71395;SDS011;59888;55.814;37.132;2023-02-21T10:49:31;22.70;;;8.20;;
71395;SDS011;59888;55.814;37.132;2023-02-21T10:52:15;19.48;;;8.38;;
71395;SDS011;59888;55.814;37.132;2023-02-21T10:54:59;17.30;;;8.60;;
71395;SDS011;59888;55.814;37.132;2023-02-21T10:57:29;20.83;;;7.95;;
71395;SDS011;59888;55.814;37.132;2023-02-21T10:59:57;25.75;;;8.60;;
71395;SDS011;59888;55.814;37.132;2023-02-21T11:02:40;19.67;;;8.25;;
71395;SDS011;59888;55.814;37.132;2023-02-21T11:05:18;18.27;;;7.97;;
71395;SDS011;59888;55.814;37.132;2023-02-21T11:07:57;20.52;;;7.90;;
71395;SDS011;59888;55.814;37.132;2023-02-21T11:10:26;18.50;;;7.53;;
71395;SDS011;59888;55.814;37.132;2023-02-21T11:13:05;17.35;;;7.82;;
71395;SDS011;59888;55.814;37.132;2023-02-21T11:18:40;21.15;;;8.60;;
71395;SDS011;59888;55.814;37.132;2023-02-21T11:21:10;18.92;;;8.20;;
71395;SDS011;59888;55.814;37.132;2023-02-21T11:23:36;19.33;;;7.65;;
71395;SDS011;59888;55.814;37.132;2023-02-21T11:26:09;20.65;;;8.10;;
71395;SDS011;59888;55.814;37.132;2023-02-21T11:28:44;20.70;;;8.98;;
71395;SDS011;59888;55.814;37.132;2023-02-21T11:34:00;18.55;;;8.70;;
71395;SDS011;59888;55.814;37.132;2023-02-21T11:36:29;25.77;;;9.32;;
71395;SDS011;59888;55.814;37.132;2023-02-21T11:44:17;19.55;;;8.30;;
71395;SDS011;59888;55.814;37.132;2023-02-21T11:47:14;25.05;;;8.23;;
71395;SDS011;59888;55.814;37.132;2023-02-21T11:49:47;18.52;;;7.90;;
71395;SDS011;59888;55.814;37.132;2023-02-21T11:52:19;23.13;;;8.80;;
71395;SDS011;59888;55.814;37.132;2023-02-21T11:54:54;20.15;;;8.50;;
71395;SDS011;59888;55.814;37.132;2023-02-21T12:18:38;17.40;;;7.20;;
71395;SDS011;59888;55.814;37.132;2023-02-21T12:21:34;19.98;;;8.45;;
71395;SDS011;59888;55.814;37.132;2023-02-21T12:24:14;18.48;;;8.75;;
71395;SDS011;59888;55.814;37.132;2023-02-21T12:32:29;18.20;;;7.80;;
71395;SDS011;59888;55.814;37.132;2023-02-21T12:38:51;19.40;;;8.13;;
71395;SDS011;59888;55.814;37.132;2023-02-21T12:44:16;16.65;;;7.22;;
71395;SDS011;59888;55.814;37.132;2023-02-21T12:46:51;20.15;;;8.25;;
71395;SDS011;59888;55.814;37.132;2023-02-21T12:49:20;20.48;;;8.73;;
71395;SDS011;59888;55.814;37.132;2023-02-21T12:54:51;17.98;;;7.43;;
71395;SDS011;59888;55.814;37.132;2023-02-21T12:57:49;18.40;;;8.05;;
71395;SDS011;59888;55.814;37.132;2023-02-21T13:00:24;17.88;;;6.60;;
71395;SDS011;59888;55.814;37.132;2023-02-21T13:03:00;15.77;;;7.63;;
71395;SDS011;59888;55.814;37.132;2023-02-21T13:05:38;16.30;;;6.90;;
71395;SDS011;59888;55.814;37.132;2023-02-21T13:11:00;16.60;;;7.70;;
71395;SDS011;59888;55.814;37.132;2023-02-21T13:13:43;16.42;;;7.30;;
71395;SDS011;59888;55.814;37.132;2023-02-21T13:16:09;14.57;;;7.07;;
71395;SDS011;59888;55.814;37.132;2023-02-21T13:18:45;14.00;;;8.10;;
71395;SDS011;59888;55.814;37.132;2023-02-21T13:24:03;15.52;;;7.43;;
71395;SDS011;59888;55.814;37.132;2023-02-21T13:26:54;17.25;;;7.88;;
71395;SDS011;59888;55.814;37.132;2023-02-21T13:29:33;14.65;;;7.22;;
71395;SDS011;59888;55.814;37.132;2023-02-21T13:32:09;13.85;;;7.10;;
71395;SDS011;59888;55.814;37.132;2023-02-21T13:34:47;15.13;;;7.90;;
71395;SDS011;59888;55.814;37.132;2023-02-21T13:37:18;14.93;;;8.05;;
71395;SDS011;59888;55.814;37.132;2023-02-21T13:39:51;14.48;;;7.47;;
71395;SDS011;59888;55.814;37.132;2023-02-21T13:42:26;14.50;;;7.70;;
71395;SDS011;59888;55.814;37.132;2023-02-21T13:45:04;16.48;;;7.60;;
71395;SDS011;59888;55.814;37.132;2023-02-21T13:56:17;14.20;;;7.07;;
71395;SDS011;59888;55.814;37.132;2023-02-21T13:58:47;13.18;;;7.55;;
71395;SDS011;59888;55.814;37.132;2023-02-21T14:01:16;15.20;;;8.25;;
71395;SDS011;59888;55.814;37.132;2023-02-21T14:03:48;15.95;;;7.78;;
71395;SDS011;59888;55.814;37.132;2023-02-21T14:06:33;16.13;;;8.32;;
71395;SDS011;59888;55.814;37.132;2023-02-21T14:09:22;15.13;;;7.72;;
71395;SDS011;59888;55.814;37.132;2023-02-21T14:11:48;14.60;;;8.18;;
71395;SDS011;59888;55.814;37.132;2023-02-21T14:14:24;13.77;;;7.70;;
71395;SDS011;59888;55.814;37.132;2023-02-21T14:17:00;15.15;;;7.75;;
71395;SDS011;59888;55.814;37.132;2023-02-21T14:19:36;16.88;;;8.45;;
71395;SDS011;59888;55.814;37.132;2023-02-21T14:22:13;15.20;;;7.72;;
71395;SDS011;59888;55.814;37.132;2023-02-21T14:24:43;15.68;;;7.38;;
71395;SDS011;59888;55.814;37.132;2023-02-21T14:29:42;17.15;;;9.15;;
71395;SDS011;59888;55.814;37.132;2023-02-21T14:32:36;18.63;;;8.25;;
71395;SDS011;59888;55.814;37.132;2023-02-21T14:38:23;18.42;;;7.47;;
71395;SDS011;59888;55.814;37.132;2023-02-21T14:43:54;18.50;;;8.13;;
71395;SDS011;59888;55.814;37.132;2023-02-21T14:52:25;17.98;;;7.80;;
71395;SDS011;59888;55.814;37.132;2023-02-21T14:55:30;17.00;;;6.82;;
71395;SDS011;59888;55.814;37.132;2023-02-21T15:04:17;15.40;;;7.18;;
71395;SDS011;59888;55.814;37.132;2023-02-21T15:06:54;17.23;;;7.35;;
71395;SDS011;59888;55.814;37.132;2023-02-21T15:09:25;17.60;;;7.53;;
71395;SDS011;59888;55.814;37.132;2023-02-21T15:11:51;21.20;;;7.93;;
71395;SDS011;59888;55.814;37.132;2023-02-21T15:16:57;22.83;;;7.88;;
71395;SDS011;59888;55.814;37.132;2023-02-21T15:19:35;20.45;;;8.25;;
71395;SDS011;59888;55.814;37.132;2023-02-21T15:24:57;18.77;;;7.60;;
71395;SDS011;59888;55.814;37.132;2023-02-21T15:27:24;22.23;;;8.68;;
71395;SDS011;59888;55.814;37.132;2023-02-21T15:30:34;24.77;;;8.65;;
71395;SDS011;59888;55.814;37.132;2023-02-21T15:32:43;23.08;;;8.00;;
71395;SDS011;59888;55.814;37.132;2023-02-21T15:35:19;22.52;;;8.65;;
71395;SDS011;59888;55.814;37.132;2023-02-21T15:37:47;20.73;;;8.43;;
71395;SDS011;59888;55.814;37.132;2023-02-21T15:40:19;24.40;;;8.63;;
71395;SDS011;59888;55.814;37.132;2023-02-21T15:42:48;24.50;;;8.07;;
71395;SDS011;59888;55.814;37.132;2023-02-21T15:47:46;22.33;;;9.23;;
71395;SDS011;59888;55.814;37.132;2023-02-21T15:52:46;22.60;;;8.65;;
71395;SDS011;59888;55.814;37.132;2023-02-21T16:06:21;22.00;;;9.68;;
71395;SDS011;59888;55.814;37.132;2023-02-21T16:08:58;20.33;;;9.10;;
71395;SDS011;59888;55.814;37.132;2023-02-21T16:11:37;25.83;;;9.80;;
71395;SDS011;59888;55.814;37.132;2023-02-21T16:14:53;22.27;;;9.32;;
71395;SDS011;59888;55.814;37.132;2023-02-21T16:17:08;22.63;;;8.85;;
71395;SDS011;59888;55.814;37.132;2023-02-21T16:19:46;21.02;;;8.43;;
71395;SDS011;59888;55.814;37.132;2023-02-21T16:24:42;19.48;;;9.15;;
71395;SDS011;59888;55.814;37.132;2023-02-21T16:27:10;23.33;;;9.23;;
71395;SDS011;59888;55.814;37.132;2023-02-21T16:29:37;25.42;;;9.73;;
71395;SDS011;59888;55.814;37.132;2023-02-21T16:32:03;26.90;;;9.98;;
71395;SDS011;59888;55.814;37.132;2023-02-21T16:34:31;21.42;;;8.63;;
71395;SDS011;59888;55.814;37.132;2023-02-21T16:37:04;25.08;;;9.50;;
71395;SDS011;59888;55.814;37.132;2023-02-21T16:39:35;24.08;;;8.45;;
71395;SDS011;59888;55.814;37.132;2023-02-21T16:42:01;24.95;;;9.05;;
71395;SDS011;59888;55.814;37.132;2023-02-21T16:44:27;20.90;;;9.32;;
71395;SDS011;59888;55.814;37.132;2023-02-21T16:46:53;21.77;;;8.90;;
71395;SDS011;59888;55.814;37.132;2023-02-21T16:49:19;21.30;;;8.73;;
71395;SDS011;59888;55.814;37.132;2023-02-21T16:51:45;26.98;;;9.32;;
71395;SDS011;59888;55.814;37.132;2023-02-21T16:54:12;28.50;;;9.80;;
71395;SDS011;59888;55.814;37.132;2023-02-21T16:56:38;24.75;;;9.18;;
71395;SDS011;59888;55.814;37.132;2023-02-21T16:59:12;24.00;;;9.50;;
71395;SDS011;59888;55.814;37.132;2023-02-21T17:01:41;22.98;;;8.80;;
71395;SDS011;59888;55.814;37.132;2023-02-21T17:04:18;21.65;;;9.07;;
71395;SDS011;59888;55.814;37.132;2023-02-21T17:06:50;26.15;;;9.48;;
71395;SDS011;59888;55.814;37.132;2023-02-21T17:09:25;23.65;;;9.32;;
71395;SDS011;59888;55.814;37.132;2023-02-21T17:11:52;27.25;;;9.25;;
71395;SDS011;59888;55.814;37.132;2023-02-21T17:14:19;20.38;;;8.98;;
71395;SDS011;59888;55.814;37.132;2023-02-21T17:16:45;23.10;;;8.85;;
71395;SDS011;59888;55.814;37.132;2023-02-21T17:19:15;18.98;;;8.07;;
71395;SDS011;59888;55.814;37.132;2023-02-21T17:21:45;19.80;;;8.15;;
71395;SDS011;59888;55.814;37.132;2023-02-21T17:24:12;21.10;;;8.30;;
71395;SDS011;59888;55.814;37.132;2023-02-21T17:26:38;24.60;;;9.70;;
71395;SDS011;59888;55.814;37.132;2023-02-21T17:29:05;22.23;;;9.05;;
71395;SDS011;59888;55.814;37.132;2023-02-21T17:31:32;23.63;;;8.52;;
71395;SDS011;59888;55.814;37.132;2023-02-21T17:33:58;20.70;;;8.25;;
71395;SDS011;59888;55.814;37.132;2023-02-21T17:36:25;25.80;;;9.00;;